• Join FlightAware (Why Join?)
  • Login
  • US Flag 
10:02PM EDT


 

Airport Tracker/Info


-or-


 

Live Flight TrackerFlight Track Log ✈ RPA1631 ✈ 30-Apr-2013 ✈ KMSN - KDEN

Flight Track Log - Related Links

Times and Time Zones

All times are in EDT time to prevent confusion due to time zone crossing. See the RPA1631 flight status page for this flight to view local times or setup timezone preferences in your user account.

Time Position Orientation Groundspeed Altitude Reporting Facility
EDT Latitude Longitude Course Direction KTS MPH feet Rate Location/Type
09:11AM 43.0958 -89.3569 270° West 141 162 2,900  Level Chicago Center
09:12AM 43.0961 -89.4328 270° West 197 227 5,400 2,340 Climbing Chicago Center
09:13AM 43.0964 -89.5181 270° West 197 227 7,800 2,280 Climbing Chicago Center
09:14AM 43.0967 -89.6128 270° West 244 281 10,200 2,040 Climbing Chicago Center
09:15AM 43.0986 -89.7169 271° West 269 310 12,100 2,220 Climbing Chicago Center
09:16AM 43.1334 -90.3945 270° West  Level FlightAware Approximate
09:16AM 43.1006 -89.8269 271° West 286 329 14,800  Level Chicago Center
09:17AM 43.1008 -89.9244 270° West 280 322 16,700 2,160 Climbing Chicago Center
09:18AM 43.1025 -90.0589 271° West 297 342 19,300 2,220 Climbing Chicago Center
09:19AM 43.1042 -90.1731 271° West 303 349 21,300 1,740 Climbing Chicago Center
09:20AM 43.1056 -90.2883 271° West 306 352 23,000 1,500 Climbing Chicago Center
09:21AM 43.1081 -90.4086 272° West 318 366 24,500 1,320 Climbing Chicago Center
09:22AM 43.1092 -90.5306 271° West 323 372 25,800 1,140 Climbing Chicago Center
09:23AM 43.1050 -90.6869 268° West 343 395 26,900 900 Climbing Chicago Center
09:24AM 43.0975 -90.8267 266° West 369 425 27,700 900 Climbing Chicago Center
09:25AM 43.0928 -90.9689 267° West 376 433 28,700 1,140 Climbing Minneapolis Center
09:26AM 43.0869 -91.1125 267° West 381 438 30,000 540 Climbing Minneapolis Center
09:28AM 43.0792 -91.2567 266° West 385 443 30,000  Level Minneapolis Center
09:29AM 43.0714 -91.4275 266° West 382 440 30,000  Level Minneapolis Center
09:30AM 43.0647 -91.5678 266° West 379 436 30,100 780 Climbing Minneapolis Center
09:31AM 43.0542 -91.7350 265° West 377 434 31,700 1,020 Climbing Minneapolis Center
09:32AM 43.0469 -91.8733 266° West 373 429 32,300 720 Climbing Minneapolis Center
09:33AM 43.0389 -92.0133 266° West 374 430 33,200 780 Climbing Minneapolis Center
09:34AM 43.0314 -92.1494 266° West 368 423 34,000 360 Climbing Minneapolis Center
09:35AM 43.0233 -92.2861 265° West 366 421 34,000  Level Minneapolis Center
09:36AM 43.0136 -92.4517 265° West 368 423 34,000  Level Minneapolis Center
09:37AM 43.0053 -92.5897 265° West 370 426 34,000  Level Minneapolis Center
09:38AM 42.9975 -92.7253 266° West 364 419 34,000  Level Minneapolis Center
09:39AM 42.9889 -92.8636 265° West 367 422 34,000  Level Minneapolis Center
09:40AM 42.9803 -93.0008 265° West 368 423 34,000  Level Minneapolis Center
09:41AM 42.9714 -93.1361 265° West 364 419 34,000  Level Minneapolis Center
09:42AM 42.9644 -93.2444 265° West 363 418 34,000  Level Minneapolis Center
09:43AM 42.9511 -93.4350 265° West 363 418 34,000  Level Minneapolis Center
09:44AM 42.9433 -93.5958 266° West 359 413 34,000  Level Minneapolis Center
09:45AM 42.9331 -93.7328 264° West 364 419 34,000  Level Minneapolis Center
09:46AM 42.9222 -93.8681 264° West 364 419 34,000  Level Minneapolis Center
09:47AM 42.9125 -94.0042 264° West 363 418 34,000  Level Minneapolis Center
09:48AM 42.9028 -94.1400 264° West 364 419 34,000  Level Minneapolis Center
09:49AM 42.8914 -94.3014 265° West 359 413 34,000  Level Minneapolis Center
09:50AM 42.8803 -94.4367 264° West 362 417 34,000  Level Minneapolis Center
09:51AM 42.8697 -94.5708 264° West 361 415 34,000  Level Minneapolis Center
09:52AM 42.8567 -94.7331 264° West 352 405 34,000  Level Minneapolis Center
09:54AM 42.8456 -94.8686 264° West 358 412 34,000  Level Minneapolis Center
09:55AM 42.8369 -94.9781 264° West 362 417 34,000  Level Minneapolis Center
09:56AM 42.8225 -95.1414 263° West 362 417 34,000  Level Minneapolis Center
09:57AM 42.8111 -95.2772 264° West 361 415 34,000  Level Minneapolis Center
09:58AM 42.8003 -95.4128 264° West 360 414 34,000  Level Minneapolis Center
09:59AM 42.7861 -95.5744 263° West 359 413 34,000  Level Minneapolis Center
10:00AM 42.7731 -95.7092 263° West 359 413 34,000  Level Minneapolis Center
10:01AM 42.7619 -95.8442 264° West 359 413 34,000  Level Minneapolis Center
10:02AM 42.7497 -95.9781 263° West 358 412 34,000  Level Minneapolis Center
10:03AM 42.7375 -96.1106 263° West 355 409 34,000  Level Minneapolis Center
10:04AM 42.7258 -96.2447 263° West 356 410 34,000  Level Minneapolis Center
10:05AM 42.7125 -96.3761 262° West 352 405 34,000  Level Minneapolis Center
10:06AM 42.6992 -96.5222 263° West 350 403 34,000  Level Minneapolis Center
10:07AM 42.6864 -96.6550 263° West 353 406 34,000  Level Minneapolis Center
10:08AM 42.6733 -96.7856 262° West 353 406 34,000  Level Minneapolis Center
10:09AM 42.6611 -96.9164 263° West 350 403 34,000  Level Minneapolis Center
10:10AM 42.6475 -97.0472 262° West 350 403 34,000  Level Minneapolis Center
10:11AM 42.6342 -97.1764 262° West 349 402 34,000  Level Minneapolis Center
10:12AM 42.6208 -97.3058 262° West 347 399 34,000  Level Minneapolis Center
10:13AM 42.6081 -97.4347 262° West 346 398 34,000  Level Minneapolis Center
10:14AM 42.5911 -97.5906 262° West 348 400 34,000  Level Minneapolis Center
10:15AM 42.5778 -97.7192 262° West 347 399 34,000  Level Minneapolis Center
10:16AM 42.5636 -97.8561 262° West 348 400 34,000  Level Minneapolis Center
10:17AM 42.5494 -97.9831 261° West 343 395 34,000  Level Minneapolis Center
10:18AM 42.5347 -98.1117 261° West 344 396 34,000  Level Minneapolis Center
10:19AM 42.5206 -98.2400 262° West 345 397 34,000  Level Minneapolis Center
10:20AM 42.5072 -98.3681 262° West 344 396 34,000  Level Minneapolis Center
10:21AM 42.4928 -98.4944 261° West 341 392 34,000  Level Minneapolis Center
10:22AM 42.4783 -98.6219 261° West 343 395 34,000  Level Minneapolis Center
10:23AM 42.4456 -98.7428 250° West 347 399 34,000  Level Minneapolis Center
10:24AM 42.3972 -98.8528 239° Southwest 342 394 34,000  Level Minneapolis Center
10:25AM 42.3361 -98.9858 238° Southwest 346 398 34,000  Level Minneapolis Center
10:26AM 42.2872 -99.0975 239° Southwest 346 398 34,000  Level Minneapolis Center
10:27AM 42.2364 -99.2089 238° Southwest 349 402 34,000  Level Minneapolis Center
10:28AM 42.1847 -99.3206 238° Southwest 352 405 34,000  Level Minneapolis Center
10:29AM 42.1547 -99.3886 239° Southwest 349 402 34,000  Level Denver Center
10:30AM 42.1028 -99.4997 238° Southwest 352 405 34,000  Level Denver Center
10:31AM 42.0561 -99.6128 241° Southwest 348 400 34,000  Level Denver Center
10:32AM 41.9997 -99.7481 241° Southwest 350 403 34,000  Level Denver Center
10:33AM 41.9550 -99.8578 241° Southwest 351 404 34,000  Level Denver Center
10:34AM 41.9089 -99.9653 240° Southwest 349 402 34,000  Level Denver Center
10:35AM 41.8556 -100.0928 241° Southwest 351 404 34,000  Level Denver Center
10:36AM 41.8092 -100.2019 240° Southwest 352 405 34,000  Level Denver Center
10:37AM 41.7547 -100.3300 240° Southwest 356 410 34,000  Level Denver Center
10:38AM 41.7081 -100.4383 240° Southwest 353 406 34,000  Level Denver Center
10:39AM 41.6531 -100.5656 240° Southwest 354 407 34,000  Level Denver Center
10:40AM 41.6067 -100.6761 241° Southwest 355 409 34,000  Level Denver Center
10:41AM 41.5508 -100.8039 240° Southwest 357 411 34,000  Level Denver Center
10:42AM 41.5039 -100.9119 240° Southwest 354 407 34,000  Level Denver Center
10:43AM 41.4486 -101.0397 240° Southwest 359 413 34,000  Level Denver Center
10:44AM 41.4017 -101.1506 241° Southwest 360 414 34,000  Level Denver Center
10:45AM 41.3606 -101.2872 248° West 359 413 34,000  Level Denver Center
10:46AM 41.3247 -101.4028 248° West 355 409 34,000  Level Denver Center
10:47AM 41.2836 -101.5383 248° West 355 409 34,000  Level Denver Center
10:49AM 41.2467 -101.6550 247° West 359 413 34,000  Level Denver Center
10:50AM 41.2044 -101.7906 248° West 357 411 34,000  Level Denver Center
10:51AM 41.1658 -101.9097 247° West 365 420 34,000  Level Denver Center
10:52AM 41.1244 -102.0478 248° West 363 418 34,000  Level Denver Center
10:53AM 41.0881 -102.1678 248° West 365 420 34,000  Level Denver Center
10:54AM 41.0450 -102.3061 248° West 365 420 34,000  Level Denver Center
10:55AM 41.0064 -102.4236 247° West 365 420 34,000  Level Denver Center
10:56AM 40.9639 -102.5614 248° West 363 418 34,000  Level Denver Center
10:57AM 40.9256 -102.6778 246° West 362 417 34,000  Level Denver Center
10:58AM 40.8814 -102.8147 247° West 363 418 34,000  Level Denver Center
10:59AM 40.8353 -102.9250 241° Southwest 359 413 34,000  Level Denver Center
11:00AM 40.7833 -103.0442 240° Southwest 364 419 34,000 -360 Level Denver Center
11:01AM 40.7356 -103.1542 240° Southwest 361 415 33,300 -1,320 Descending Denver Center
11:02AM 40.6811 -103.2750 239° Southwest 366 421 31,300 -2,040 Descending Denver Center
11:03AM 40.6275 -103.3981 240° Southwest 374 430 29,200 -2,100 Descending Denver Center
11:04AM 40.5692 -103.5283 240° Southwest 371 427 27,000 -1,980 Descending Denver Center
11:05AM 40.5214 -103.6375 240° Southwest 360 414 25,200 -1,860 Descending Denver Center
11:06AM 40.4667 -103.7581 239° Southwest 345 397 23,200 -1,860 Descending Denver Center
11:07AM 40.4211 -103.8619 240° Southwest 336 387 21,400 -2,040 Descending Denver Center
11:08AM 40.3753 -103.9672 240° Southwest 310 357 19,000 -2,340 Descending Denver Center
11:09AM 40.3756 -104.0569 270° West 279 321 16,600 -2,400 Descending Denver Center
11:10AM 40.4153 -104.1631 296° West 305 351 14,100 -1,320 Descending Denver Center
11:11AM 40.4183 -104.2589 272° West 266 306 13,900 -540 Descending Denver Center
11:12AM 40.3967 -104.3433 251° West 231 266 13,000 -480 Descending Denver Center
11:13AM 40.3767 -104.4239 252° West 232 267 13,000 -540 Level Denver Center
11:14AM 40.3558 -104.5094 252° West 231 266 12,000 -540 Descending Denver Center
11:15AM 40.3356 -104.5886 251° West 230 265 12,000  Level Denver Center
11:16AM 40.2750 -104.6347 210° Southwest 232 267 12,000  Level Denver Center
11:17AM 40.2128 -104.6558 195° South 233 268 12,000 -480 Level Denver Center
11:19AM 40.1475 -104.6569 181° South 235 270 11,000 -900 Descending Denver Center
11:20AM 40.0847 -104.6575 180° South 211 243 10,200 -1,020 Descending Denver Center
11:21AM 40.0397 -104.6583 181° South 165 190 9,000 -1,080 Descending Denver Center
11:22AM 39.9903 -104.6589 180° South 164 189 8,000 -960 Descending Denver Center
11:23AM 39.9447 -104.6586 180° South 165 190 7,100 -960 Descending Denver Center
11:24AM 39.8961 -104.6600 181° South 162 186 6,100 -840 Descending Denver Center
11:25AM 39.8575 -104.6603 180° South 142 163 5,400 -720 Descending Denver Center
11:27AM 39.8500 -104.6667 190° South  Level FlightAware Approximate
11:34AM 39.8617 -104.6732 190° South  Level Estimated
11:35AM 39.8617 -104.6732 190° South  Level Estimated